createdAt,value
2022-08-29T00:03:39.679Z,92.94
2022-08-29T00:07:25.089Z,93.70
2022-08-29T00:11:10.738Z,94.40
2022-08-29T00:14:53.628Z,94.16
2022-08-29T00:18:37.321Z,94.98
2022-08-29T00:22:20.070Z,96.03
2022-08-29T00:26:04.537Z,96.38
2022-08-29T00:29:47.367Z,96.62
2022-08-29T00:33:30.149Z,96.31
2022-08-29T00:37:15.393Z,96.46
2022-08-29T00:40:59.770Z,96.86
2022-08-29T00:44:43.977Z,96.55
2022-08-29T00:48:27.138Z,95.87
2022-08-29T00:52:13.860Z,97.05
2022-08-29T00:55:56.609Z,96.68
2022-08-29T00:59:40.528Z,96.19
2022-08-29T01:03:24.760Z,96.66
2022-08-29T01:07:07.866Z,97.20
2022-08-29T01:11:11.514Z,97.40
2022-08-29T01:14:57.465Z,97.83
2022-08-29T01:18:45.705Z,98.53
2022-08-29T01:22:56.950Z,98.47
2022-08-29T01:26:41.348Z,97.38
2022-08-29T01:30:24.286Z,97.92
2022-08-29T01:34:10.091Z,98.08
2022-08-29T01:37:52.871Z,98.47
2022-08-29T01:41:36.431Z,99.07
2022-08-29T01:45:20.696Z,99.19
2022-08-29T01:49:05.521Z,99.15
2022-08-29T01:52:48.394Z,99.55
2022-08-29T01:56:32.831Z,98.67
2022-08-29T02:00:16.376Z,98.10
2022-08-29T02:04:00.566Z,98.48
2022-08-29T02:07:43.356Z,99.70
2022-08-29T02:11:26.153Z,99.61
2022-08-29T02:15:09.329Z,100.00
2022-08-29T02:18:52.223Z,100.00
2022-08-29T02:22:37.356Z,100.00
2022-08-29T02:26:21.331Z,99.82
2022-08-29T02:30:04.409Z,98.82
2022-08-29T02:33:47.411Z,100.00
2022-08-29T02:37:30.187Z,100.00
2022-08-29T02:41:18.281Z,100.00
2022-08-29T02:45:01.239Z,100.00
2022-08-29T02:48:47.566Z,99.32
2022-08-29T02:52:37.468Z,99.03
2022-08-29T02:56:21.629Z,100.00
2022-08-29T03:00:05.883Z,100.00
2022-08-29T03:03:50.290Z,100.00
2022-08-29T03:07:33.336Z,100.00
2022-08-29T03:11:17.180Z,100.00
2022-08-29T03:15:01.391Z,100.00
2022-08-29T03:18:44.195Z,100.00
2022-08-29T03:22:27.844Z,100.00
2022-08-29T03:26:10.587Z,100.00
2022-08-29T03:29:53.365Z,100.00
2022-08-29T03:33:37.483Z,100.00
2022-08-29T03:37:20.812Z,100.00
2022-08-29T03:41:03.598Z,100.00
2022-08-29T03:44:46.388Z,100.00
2022-08-29T03:48:29.185Z,99.81
2022-08-29T03:52:13.310Z,99.30
2022-08-29T03:55:58.904Z,99.49
2022-08-29T03:59:42.958Z,99.29
2022-08-29T04:03:30.892Z,98.70
2022-08-29T04:07:16.002Z,96.91
2022-08-29T04:10:58.775Z,95.92
2022-08-29T04:14:41.728Z,94.92
2022-08-29T04:18:24.496Z,94.02
2022-08-29T04:22:08.061Z,93.39
2022-08-29T04:26:07.249Z,93.31
2022-08-29T04:29:55.468Z,94.39
2022-08-29T04:33:38.281Z,95.80
2022-08-29T04:37:21.075Z,95.65
2022-08-29T04:41:09.797Z,95.89
2022-08-29T04:44:52.794Z,97.24
2022-08-29T04:48:35.568Z,96.66
2022-08-29T04:52:18.295Z,97.07
2022-08-29T04:56:03.350Z,96.61
2022-08-29T04:59:50.072Z,96.21
2022-08-29T05:03:35.810Z,97.35
2022-08-29T05:07:20.825Z,98.25
2022-08-29T05:11:03.773Z,98.18
2022-08-29T05:14:47.922Z,97.73
2022-08-29T05:18:30.706Z,98.06
2022-08-29T05:22:14.446Z,97.65
2022-08-29T05:25:58.513Z,96.99
2022-08-29T05:29:42.446Z,96.15
2022-08-29T05:33:27.808Z,96.20
2022-08-29T05:37:12.632Z,95.29
2022-08-29T05:40:55.401Z,95.20
2022-08-29T05:44:38.854Z,95.41
2022-08-29T05:48:21.613Z,95.05
2022-08-29T05:52:07.093Z,95.03
2022-08-29T05:55:49.905Z,95.35
2022-08-29T05:59:32.713Z,95.81
2022-08-29T06:03:15.943Z,95.61
2022-08-29T06:06:58.801Z,95.33
2022-08-29T06:10:45.217Z,95.44
2022-08-29T06:14:28.142Z,95.35
2022-08-29T06:18:10.932Z,94.98
2022-08-29T06:21:56.004Z,94.28
2022-08-29T06:25:39.847Z,94.11
2022-08-29T06:29:24.517Z,93.89
2022-08-29T06:33:07.533Z,93.80
2022-08-29T06:36:53.141Z,92.99
2022-08-29T06:40:38.394Z,92.56
2022-08-29T06:44:21.925Z,93.00
2022-08-29T06:48:06.335Z,93.41
2022-08-29T06:51:57.381Z,92.50
2022-08-29T06:55:40.625Z,91.73
2022-08-29T06:59:23.442Z,91.25
2022-08-29T07:03:08.127Z,91.02
2022-08-29T07:06:50.917Z,91.54
2022-08-29T07:10:33.771Z,91.40
2022-08-29T07:14:16.634Z,90.69
2022-08-29T07:18:00.888Z,90.93
2022-08-29T07:21:44.991Z,86.00
2022-08-29T07:25:28.246Z,85.17
2022-08-29T07:29:13.595Z,84.51
2022-08-29T07:32:56.620Z,84.91
2022-08-29T07:36:39.747Z,84.10
2022-08-29T07:40:24.274Z,83.40
2022-08-29T07:44:07.162Z,82.23
2022-08-29T07:47:53.010Z,81.60
2022-08-29T07:51:36.934Z,82.28
2022-08-29T07:55:21.842Z,82.06
2022-08-29T07:59:06.390Z,80.97
2022-08-29T08:02:49.271Z,80.75
2022-08-29T08:06:32.087Z,80.21
2022-08-29T08:10:19.836Z,80.20
2022-08-29T08:14:03.047Z,79.15
2022-08-29T08:17:47.245Z,79.50
2022-08-29T08:21:30.035Z,78.33
2022-08-29T08:25:14.118Z,77.72
2022-08-29T08:28:56.980Z,77.39
2022-08-29T08:32:45.632Z,77.43
2022-08-29T08:36:41.037Z,75.99
2022-08-29T08:40:27.550Z,76.11
2022-08-29T08:44:15.003Z,75.68
2022-08-29T08:48:02.700Z,75.08
2022-08-29T08:51:51.030Z,74.97
2022-08-29T08:55:41.644Z,74.22
2022-08-29T08:59:30.096Z,74.26
2022-08-29T09:03:26.470Z,73.52
2022-08-29T09:07:24.150Z,73.08
2022-08-29T09:11:12.351Z,73.48
2022-08-29T09:15:04.137Z,72.49
2022-08-29T09:18:49.914Z,70.16
2022-08-29T09:22:40.645Z,70.73
2022-08-29T09:26:24.821Z,69.72
2022-08-29T09:30:11.446Z,69.26
2022-08-29T09:33:55.844Z,69.11
2022-08-29T09:37:41.180Z,69.20
2022-08-29T09:41:30.816Z,68.86
2022-08-29T09:45:19.413Z,68.13
2022-08-29T09:49:14.016Z,67.34
2022-08-29T09:53:00.262Z,66.16
2022-08-29T09:56:53.366Z,65.00
2022-08-29T10:00:38.843Z,65.20
2022-08-29T10:04:37.840Z,64.61
2022-08-29T10:08:31.679Z,65.11
2022-08-29T10:12:18.111Z,63.75
2022-08-29T10:16:07.014Z,63.52
2022-08-29T10:19:49.948Z,64.12
2022-08-29T10:23:39.316Z,62.97
2022-08-29T10:27:31.123Z,61.63
2022-08-29T10:31:17.227Z,61.59
2022-08-29T10:35:08.906Z,62.32
2022-08-29T10:38:58.250Z,62.26
2022-08-29T10:42:42.139Z,61.69
2022-08-29T10:46:41.591Z,59.96
2022-08-29T10:50:46.575Z,60.79
2022-08-29T10:54:37.447Z,61.78
2022-08-29T10:58:33.582Z,59.82
2022-08-29T11:02:24.106Z,57.63
2022-08-29T11:06:12.951Z,58.16
2022-08-29T11:09:59.946Z,58.88
2022-08-29T11:13:45.533Z,60.92
2022-08-29T11:17:32.523Z,59.41
2022-08-29T11:21:27.450Z,58.55
2022-08-29T11:25:14.282Z,58.91
2022-08-29T11:29:01.981Z,57.59
2022-08-29T11:32:52.489Z,58.83
2022-08-29T11:36:55.608Z,56.24
2022-08-29T11:45:00.619Z,54.42
2022-08-29T11:48:47.402Z,55.19
2022-08-29T11:52:31.249Z,55.98
2022-08-29T11:56:28.364Z,56.23
2022-08-29T12:00:39.055Z,55.47
2022-08-29T12:04:53.241Z,54.27
2022-08-29T12:08:38.715Z,54.79
2022-08-29T12:12:43.918Z,55.12
2022-08-29T12:16:28.915Z,53.82
2022-08-29T12:20:22.268Z,53.41
2022-08-29T12:24:27.156Z,54.06
2022-08-29T12:28:33.743Z,54.21
2022-08-29T12:32:40.140Z,53.22
2022-08-29T12:36:33.032Z,53.26
2022-08-29T12:40:32.287Z,54.42
2022-08-29T12:44:21.333Z,51.55
2022-08-29T12:48:08.055Z,49.02
2022-08-29T12:51:56.203Z,49.02
2022-08-29T12:55:43.378Z,48.67
2022-08-29T12:59:29.141Z,47.31
2022-08-29T13:03:18.584Z,46.97
2022-08-29T13:07:03.217Z,47.40
2022-08-29T13:10:54.848Z,48.28
2022-08-29T13:14:49.985Z,47.34
2022-08-29T13:18:59.838Z,47.78
2022-08-29T13:22:42.302Z,47.85
2022-08-29T13:26:27.683Z,48.50
2022-08-29T13:30:24.387Z,48.70
2022-08-29T13:34:21.005Z,47.76
2022-08-29T13:38:18.185Z,48.37
2022-08-29T13:42:21.067Z,46.92
2022-08-29T13:46:15.687Z,44.48
2022-08-29T13:50:00.171Z,45.84
2022-08-29T13:53:44.768Z,44.27
2022-08-29T13:57:30.447Z,43.03
2022-08-29T14:01:30.879Z,43.57
2022-08-29T14:05:17.749Z,43.60
2022-08-29T14:09:01.296Z,44.26
2022-08-29T14:12:44.479Z,45.68
2022-08-29T14:16:28.624Z,44.63
2022-08-29T14:20:12.637Z,44.63
2022-08-29T14:23:58.882Z,44.01
2022-08-29T14:27:41.872Z,43.42
2022-08-29T14:31:24.697Z,41.91
2022-08-29T14:35:25.675Z,42.12
2022-08-29T14:39:09.732Z,42.30
2022-08-29T14:42:55.496Z,41.94
2022-08-29T14:46:38.317Z,41.59
2022-08-29T14:50:23.028Z,40.09
2022-08-29T14:54:05.884Z,40.11
2022-08-29T14:57:48.781Z,40.47
2022-08-29T15:01:31.685Z,39.76
2022-08-29T15:05:14.572Z,39.62
2022-08-29T15:08:59.348Z,37.57
2022-08-29T15:12:42.215Z,38.21
2022-08-29T15:16:27.455Z,36.71
2022-08-29T15:20:35.516Z,35.56
2022-08-29T15:24:15.856Z,35.22
2022-08-29T15:27:58.659Z,35.08
2022-08-29T15:31:41.396Z,33.98
2022-08-29T15:35:24.146Z,32.82
2022-08-29T15:39:07.250Z,32.87
2022-08-29T15:42:52.044Z,32.79
2022-08-29T15:46:38.035Z,33.57
2022-08-29T15:50:23.527Z,34.03
2022-08-29T15:54:08.617Z,33.62
2022-08-29T15:57:53.120Z,33.50
2022-08-29T16:01:37.549Z,34.16
2022-08-29T16:05:24.245Z,35.78
2022-08-29T16:09:15.194Z,36.81
2022-08-29T16:13:05.328Z,35.23
2022-08-29T16:16:48.114Z,35.69
2022-08-29T16:20:31.469Z,37.66
2022-08-29T16:24:14.528Z,37.90
2022-08-29T16:27:57.838Z,37.82
2022-08-29T16:31:41.923Z,39.22
2022-08-29T16:35:25.210Z,38.08
2022-08-29T16:39:08.091Z,40.67
2022-08-29T16:42:55.741Z,39.02
2022-08-29T16:46:38.706Z,40.33
2022-08-29T16:50:23.271Z,38.69
2022-08-29T16:54:06.122Z,38.40
2022-08-29T16:58:02.845Z,41.32
2022-08-29T17:01:48.352Z,41.00
2022-08-29T17:05:32.703Z,41.52
2022-08-29T17:09:15.347Z,42.50
2022-08-29T17:12:57.023Z,42.35
2022-08-29T17:16:49.534Z,43.08
2022-08-29T17:20:37.402Z,44.19
2022-08-29T17:24:20.973Z,46.08
2022-08-29T17:28:17.739Z,45.77
2022-08-29T17:32:07.262Z,46.58
2022-08-29T17:35:51.433Z,46.67
2022-08-29T17:39:39.340Z,47.99
2022-08-29T17:43:22.996Z,48.27
2022-08-29T17:47:05.962Z,49.15
2022-08-29T17:50:49.060Z,48.63
2022-08-29T17:54:33.227Z,49.67
2022-08-29T17:58:16.165Z,48.64
2022-08-29T18:01:59.846Z,49.45
2022-08-29T18:05:42.748Z,50.38
2022-08-29T18:09:25.895Z,50.06
2022-08-29T18:13:10.181Z,50.92
2022-08-29T18:16:53.425Z,51.38
2022-08-29T18:20:37.511Z,50.94
2022-08-29T18:24:20.923Z,51.34
2022-08-29T18:28:06.713Z,51.51
2022-08-29T18:31:50.863Z,51.34
2022-08-29T18:35:33.713Z,51.55
2022-08-29T18:39:17.234Z,51.57
2022-08-29T18:43:01.645Z,52.34
2022-08-29T18:46:48.303Z,53.02
2022-08-29T18:50:35.516Z,53.37
2022-08-29T18:54:19.343Z,53.33
2022-08-29T18:58:02.677Z,54.11
2022-08-29T19:01:45.680Z,54.25
2022-08-29T19:05:31.090Z,54.88
2022-08-29T19:09:15.447Z,55.65
2022-08-29T19:12:59.214Z,56.64
2022-08-29T19:16:42.061Z,57.35
2022-08-29T19:20:44.003Z,57.76
2022-08-29T19:24:28.380Z,58.15
2022-08-29T19:28:11.779Z,58.62
2022-08-29T19:31:54.669Z,59.02
2022-08-29T19:35:38.442Z,59.48
2022-08-29T19:39:21.265Z,60.52
2022-08-29T19:43:13.503Z,60.20
2022-08-29T19:46:56.918Z,60.67
2022-08-29T19:50:40.568Z,61.33
2022-08-29T19:54:23.629Z,62.04
2022-08-29T19:58:08.080Z,63.16
2022-08-29T20:01:51.685Z,63.47
2022-08-29T20:05:35.020Z,63.80
2022-08-29T20:13:07.255Z,63.79
2022-08-29T20:16:50.133Z,64.24
2022-08-29T20:20:36.092Z,64.70
2022-08-29T20:24:19.251Z,65.38
2022-08-29T20:28:05.788Z,66.30
2022-08-29T20:31:50.006Z,66.19
2022-08-29T20:35:52.852Z,66.99
2022-08-29T20:39:36.950Z,67.46
2022-08-29T20:43:20.367Z,68.07
2022-08-29T20:47:05.662Z,68.02
2022-08-29T20:50:48.538Z,68.75
2022-08-29T20:54:31.623Z,69.70
2022-08-29T20:58:14.398Z,69.94
2022-08-29T21:01:57.257Z,69.90
2022-08-29T21:05:43.324Z,70.65
2022-08-29T21:09:26.480Z,71.39
2022-08-29T21:13:10.075Z,70.96
2022-08-29T21:16:54.239Z,71.24
2022-08-29T21:20:37.734Z,71.96
2022-08-29T21:24:30.457Z,72.33
2022-08-29T21:28:14.223Z,73.05
2022-08-29T21:31:58.593Z,73.71
2022-08-29T21:35:42.016Z,74.10
2022-08-29T21:39:28.563Z,74.48
2022-08-29T21:43:13.288Z,74.62
2022-08-29T21:46:56.229Z,74.96
2022-08-29T21:50:39.146Z,75.20
2022-08-29T21:54:21.949Z,75.92
2022-08-29T21:58:04.717Z,76.02
2022-08-29T22:01:52.693Z,76.14
2022-08-29T22:05:40.751Z,76.50
2022-08-29T22:09:26.679Z,77.51
2022-08-29T22:13:10.366Z,78.37
2022-08-29T22:16:54.774Z,79.06
2022-08-29T22:20:38.412Z,78.88
2022-08-29T22:24:21.254Z,78.58
2022-08-29T22:28:04.608Z,78.91
2022-08-29T22:31:47.419Z,79.10
2022-08-29T22:35:31.580Z,79.04
2022-08-29T22:39:14.474Z,78.81
2022-08-29T22:42:57.774Z,79.72
2022-08-29T22:46:43.164Z,80.50
2022-08-29T22:50:26.855Z,79.65
2022-08-29T22:54:28.753Z,79.84
2022-08-29T22:58:11.592Z,80.63
2022-08-29T23:01:58.716Z,80.95
2022-08-29T23:05:41.730Z,82.12
2022-08-29T23:09:25.894Z,82.01
2022-08-29T23:13:12.194Z,81.89
2022-08-29T23:16:55.158Z,82.64
2022-08-29T23:20:37.991Z,82.08
2022-08-29T23:24:21.873Z,81.82
2022-08-29T23:28:06.127Z,82.26
2022-08-29T23:31:48.898Z,82.51
2022-08-29T23:35:31.714Z,83.10
2022-08-29T23:39:16.642Z,83.49
2022-08-29T23:42:59.391Z,83.60
2022-08-29T23:46:43.552Z,82.16
2022-08-29T23:50:26.462Z,81.33
2022-08-29T23:54:09.253Z,81.24
2022-08-29T23:57:51.927Z,81.36
